createdAt,value
2017-12-22T00:03:54.825Z," 8.48"
2017-12-22T00:08:50.562Z," 8.51"
2017-12-22T00:13:46.483Z," 8.45"
2017-12-22T00:18:42.302Z," 8.52"
2017-12-22T00:23:38.207Z," 8.49"
2017-12-22T00:28:33.936Z," 8.34"
2017-12-22T00:33:30.464Z," 8.24"
2017-12-22T00:38:26.590Z," 8.12"
2017-12-22T00:43:22.096Z," 8.08"
2017-12-22T00:48:17.695Z," 8.01"
2017-12-22T00:53:13.399Z," 7.98"
2017-12-22T00:58:08.599Z," 7.97"
2017-12-22T01:03:05.065Z," 7.97"
2017-12-22T01:08:01.013Z," 7.94"
2017-12-22T01:12:57.987Z," 7.91"
2017-12-22T01:17:53.558Z," 8.00"
2017-12-22T01:22:49.898Z," 7.93"
2017-12-22T01:27:45.243Z," 8.01"
2017-12-22T01:32:41.224Z," 8.09"
2017-12-22T01:37:37.291Z," 7.98"
2017-12-22T01:42:33.082Z," 8.10"
2017-12-22T01:47:28.884Z," 8.10"
2017-12-22T01:52:25.636Z," 8.09"
2017-12-22T01:57:20.748Z," 8.16"
2017-12-22T02:02:16.649Z," 8.15"
2017-12-22T02:07:13.396Z," 8.19"
2017-12-22T02:12:08.727Z," 8.23"
2017-12-22T02:17:05.946Z," 8.31"
2017-12-22T02:22:01.351Z," 8.30"
2017-12-22T02:26:57.149Z," 8.27"
2017-12-22T02:31:53.034Z," 8.27"
2017-12-22T02:36:48.429Z," 8.30"
2017-12-22T02:41:44.137Z," 8.41"
2017-12-22T02:46:40.809Z," 8.31"
2017-12-22T02:51:36.525Z," 8.36"
2017-12-22T02:56:32.167Z," 8.20"
2017-12-22T03:01:27.976Z," 8.13"
2017-12-22T03:06:23.779Z," 8.19"
2017-12-22T03:11:20.242Z," 8.20"
2017-12-22T03:16:16.694Z," 8.31"
2017-12-22T03:21:12.530Z," 8.28"
2017-12-22T03:26:08.377Z," 8.31"
2017-12-22T03:31:04.274Z," 8.30"
2017-12-22T03:36:00.033Z," 8.30"
2017-12-22T03:40:55.796Z," 8.33"
2017-12-22T03:45:52.542Z," 8.30"
2017-12-22T03:50:48.429Z," 8.31"
2017-12-22T03:55:46.172Z," 8.31"
2017-12-22T04:00:42.514Z," 8.31"
2017-12-22T04:05:37.890Z," 8.27"
2017-12-22T04:10:33.555Z," 8.28"
2017-12-22T04:15:31.410Z," 8.23"
2017-12-22T04:20:26.774Z," 8.19"
2017-12-22T04:25:22.482Z," 8.26"
2017-12-22T04:30:19.052Z," 8.24"
2017-12-22T04:35:14.434Z," 8.27"
2017-12-22T04:40:10.092Z," 8.15"
2017-12-22T04:45:06.083Z," 8.19"
2017-12-22T04:50:02.003Z," 8.12"
2017-12-22T04:54:57.822Z," 8.16"
2017-12-22T04:59:53.958Z," 8.16"
2017-12-22T05:04:49.825Z," 8.16"
2017-12-22T05:09:46.528Z," 8.13"
2017-12-22T05:14:41.965Z," 8.12"
2017-12-22T05:19:37.862Z," 8.12"
2017-12-22T05:24:33.729Z," 8.09"
2017-12-22T05:29:30.486Z," 8.19"
2017-12-22T05:34:26.739Z," 8.20"
2017-12-22T05:39:22.064Z," 8.20"
2017-12-22T05:44:19.013Z," 8.15"
2017-12-22T05:49:15.440Z," 8.19"
2017-12-22T05:54:10.931Z," 8.13"
2017-12-22T05:59:06.702Z," 8.15"
2017-12-22T06:04:02.433Z," 8.18"
2017-12-22T06:08:59.394Z," 8.23"
2017-12-22T06:13:54.854Z," 8.24"
2017-12-22T06:18:50.733Z," 8.31"
2017-12-22T06:23:46.365Z," 8.28"
2017-12-22T06:28:42.147Z," 8.27"
2017-12-22T06:33:38.198Z," 8.27"
2017-12-22T06:38:34.320Z," 8.27"
2017-12-22T06:43:30.026Z," 8.15"
2017-12-22T06:48:26.690Z," 8.15"
2017-12-22T06:53:22.160Z," 8.19"
2017-12-22T06:58:17.927Z," 8.15"
2017-12-22T07:03:13.750Z," 8.15"
2017-12-22T07:08:09.537Z," 8.12"
2017-12-22T07:13:05.271Z," 8.10"
2017-12-22T07:18:01.772Z," 8.13"
2017-12-22T07:22:57.621Z," 8.01"
2017-12-22T07:27:54.400Z," 8.10"
2017-12-22T07:32:50.763Z," 8.12"
2017-12-22T07:37:46.154Z," 8.06"
2017-12-22T07:42:41.962Z," 8.15"
2017-12-22T07:47:37.818Z," 8.06"
2017-12-22T07:52:34.627Z," 8.10"
2017-12-22T07:57:30.184Z," 8.10"
2017-12-22T08:02:26.999Z," 8.20"
2017-12-22T08:07:22.546Z," 8.15"
2017-12-22T08:12:17.775Z," 8.18"
2017-12-22T08:17:13.399Z," 8.36"
2017-12-22T08:22:09.301Z," 8.26"
2017-12-22T08:27:05.061Z," 8.36"
2017-12-22T08:32:00.969Z," 8.45"
2017-12-22T08:36:56.663Z," 8.38"
2017-12-22T08:41:52.569Z," 8.52"
2017-12-22T08:46:48.902Z," 8.44"
2017-12-22T08:51:44.790Z," 8.52"
2017-12-22T08:56:40.655Z," 8.58"
2017-12-22T09:01:37.430Z," 8.61"
2017-12-22T09:06:32.992Z," 8.53"
2017-12-22T09:11:28.736Z," 8.58"
2017-12-22T09:16:24.672Z," 8.60"
2017-12-22T09:21:20.625Z," 8.70"
2017-12-22T09:26:16.083Z," 8.66"
2017-12-22T09:31:11.523Z," 8.81"
2017-12-22T09:36:08.350Z," 8.87"
2017-12-22T09:41:04.807Z," 8.89"
2017-12-22T09:46:01.307Z," 8.88"
2017-12-22T09:50:57.745Z," 9.00"
2017-12-22T09:55:54.587Z," 9.06"
2017-12-22T10:00:50.264Z," 9.08"
2017-12-22T10:05:46.068Z," 9.06"
2017-12-22T10:10:41.702Z," 9.14"
2017-12-22T10:15:37.981Z," 9.18"
2017-12-22T10:20:33.823Z," 9.22"
2017-12-22T10:25:29.629Z," 9.40"
2017-12-22T10:30:25.473Z," 9.41"
2017-12-22T10:35:21.001Z," 9.50"
2017-12-22T10:40:16.780Z," 9.47"
2017-12-22T10:45:12.852Z," 9.51"
2017-12-22T10:50:08.825Z," 9.47"
2017-12-22T10:55:05.192Z," 9.54"
2017-12-22T11:00:00.999Z," 9.47"
2017-12-22T11:04:57.755Z," 9.58"
2017-12-22T11:09:53.276Z," 9.51"
2017-12-22T11:14:49.967Z," 9.44"
2017-12-22T11:19:47.863Z," 9.47"
2017-12-22T11:24:43.978Z," 9.46"
2017-12-22T11:29:40.427Z," 9.46"
2017-12-22T11:34:36.154Z," 9.41"
2017-12-22T11:39:32.917Z," 9.54"
2017-12-22T11:44:28.176Z," 9.44"
2017-12-22T11:49:24.175Z," 9.48"
2017-12-22T11:54:20.073Z," 9.47"
2017-12-22T11:59:16.153Z," 9.59"
2017-12-22T12:04:12.098Z," 9.48"
2017-12-22T12:09:08.334Z," 9.64"
2017-12-22T12:14:04.089Z," 9.69"
2017-12-22T12:19:00.061Z," 9.72"
2017-12-22T12:23:55.829Z," 9.79"
2017-12-22T12:28:54.380Z," 9.83"
2017-12-22T12:33:49.542Z," 9.74"
2017-12-22T12:38:46.153Z," 9.73"
2017-12-22T12:43:42.811Z," 9.66"
2017-12-22T12:48:39.268Z," 9.65"
2017-12-22T12:53:34.835Z," 9.80"
2017-12-22T12:58:30.541Z," 9.82"
2017-12-22T13:03:27.809Z," 9.80"
2017-12-22T13:08:24.487Z," 9.89"
2017-12-22T13:13:19.890Z," 9.76"
2017-12-22T13:18:15.794Z," 9.79"
2017-12-22T13:23:11.644Z," 9.80"
2017-12-22T13:28:07.370Z," 9.82"
2017-12-22T13:33:05.437Z," 9.74"
2017-12-22T13:38:00.968Z," 9.80"
2017-12-22T13:42:56.579Z," 9.76"
2017-12-22T13:47:52.076Z," 9.72"
2017-12-22T13:52:48.364Z," 9.72"
2017-12-22T13:57:44.053Z," 9.62"
2017-12-22T14:02:39.712Z," 9.51"
2017-12-22T14:07:35.740Z," 9.54"
2017-12-22T14:12:32.418Z," 9.46"
2017-12-22T14:17:28.786Z," 9.37"
2017-12-22T14:22:25.286Z," 9.18"
2017-12-22T14:27:20.904Z," 9.21"
2017-12-22T14:32:16.460Z," 9.23"
2017-12-22T14:37:13.232Z," 9.22"
2017-12-22T14:42:09.801Z," 9.14"
2017-12-22T14:47:05.372Z," 9.08"
2017-12-22T14:52:01.428Z," 9.10"
2017-12-22T14:56:58.079Z," 8.97"
2017-12-22T15:01:54.405Z," 8.99"
2017-12-22T15:06:49.915Z," 8.99"
2017-12-22T15:11:47.292Z," 8.84"
2017-12-22T15:16:42.943Z," 8.97"
2017-12-22T15:21:38.728Z," 8.94"
2017-12-22T15:26:35.159Z," 8.79"
2017-12-22T15:31:31.493Z," 8.81"
2017-12-22T15:36:27.216Z," 8.82"
2017-12-22T15:41:23.911Z," 8.78"
2017-12-22T15:46:20.286Z," 8.74"
2017-12-22T15:51:15.804Z," 8.71"
2017-12-22T15:56:11.515Z," 8.74"
2017-12-22T16:01:09.024Z," 8.67"
2017-12-22T16:06:04.042Z," 8.58"
2017-12-22T16:10:59.594Z," 8.56"
2017-12-22T16:15:55.740Z," 8.49"
2017-12-22T16:20:51.454Z," 8.49"
2017-12-22T16:25:47.803Z," 8.36"
2017-12-22T16:30:43.385Z," 8.34"
2017-12-22T16:35:39.467Z," 8.33"
2017-12-22T16:40:35.145Z," 8.30"
2017-12-22T16:45:30.924Z," 8.31"
2017-12-22T16:50:26.655Z," 8.31"
2017-12-22T16:55:22.380Z," 8.30"
2017-12-22T17:00:18.076Z," 8.20"
2017-12-22T17:05:13.530Z," 8.12"
2017-12-22T17:10:09.487Z," 8.13"
2017-12-22T17:15:06.129Z," 8.06"
2017-12-22T17:20:01.630Z," 7.93"
2017-12-22T17:24:58.523Z," 7.93"
2017-12-22T17:29:54.999Z," 8.01"
2017-12-22T17:34:50.387Z," 8.09"
2017-12-22T17:39:46.378Z," 7.98"
2017-12-22T17:44:43.042Z," 7.85"
2017-12-22T17:49:38.491Z," 7.85"
2017-12-22T17:54:34.085Z," 7.85"
2017-12-22T17:59:29.934Z," 7.79"
2017-12-22T18:04:26.640Z," 7.70"
2017-12-22T18:09:22.200Z," 7.70"
2017-12-22T18:14:18.024Z," 7.69"
2017-12-22T18:19:14.284Z," 7.67"
2017-12-22T18:24:10.056Z," 7.75"
2017-12-22T18:29:05.770Z," 7.70"
2017-12-22T18:34:01.739Z," 7.72"
2017-12-22T18:38:57.289Z," 7.67"
2017-12-22T18:43:53.091Z," 7.70"
2017-12-22T18:48:49.792Z," 7.77"
2017-12-22T18:53:45.193Z," 7.69"
2017-12-22T18:58:41.837Z," 7.61"
2017-12-22T19:03:37.808Z," 7.67"
2017-12-22T19:08:33.424Z," 7.57"
2017-12-22T19:13:29.048Z," 7.58"
2017-12-22T19:18:24.497Z," 7.51"
2017-12-22T19:23:20.484Z," 7.48"
2017-12-22T19:28:16.377Z," 7.36"
2017-12-22T19:33:11.920Z," 7.24"
2017-12-22T19:38:08.594Z," 7.39"
2017-12-22T19:43:05.153Z," 7.21"
2017-12-22T19:48:00.881Z," 7.14"
2017-12-22T19:52:56.583Z," 7.14"
2017-12-22T19:57:53.296Z," 7.05"
2017-12-22T20:02:49.885Z," 6.99"
2017-12-22T20:07:45.116Z," 6.93"
2017-12-22T20:12:40.546Z," 7.05"
2017-12-22T20:17:36.396Z," 6.97"
2017-12-22T20:22:33.134Z," 7.02"
2017-12-22T20:27:30.467Z," 6.79"
2017-12-22T20:32:26.756Z," 6.74"
2017-12-22T20:37:22.234Z," 6.60"
2017-12-22T20:42:17.888Z," 6.64"
2017-12-22T20:47:14.721Z," 6.59"
2017-12-22T20:52:10.000Z," 6.67"
2017-12-22T20:57:05.642Z," 6.62"
2017-12-22T21:02:01.344Z," 6.64"
2017-12-22T21:06:58.293Z," 6.70"
2017-12-22T21:11:53.529Z," 6.75"
2017-12-22T21:16:49.150Z," 6.66"
2017-12-22T21:21:44.970Z," 6.63"
2017-12-22T21:26:40.980Z," 6.77"
2017-12-22T21:31:36.498Z," 6.82"
2017-12-22T21:36:32.249Z," 6.92"
2017-12-22T21:41:28.932Z," 6.93"
2017-12-22T21:46:24.563Z," 6.92"
2017-12-22T21:51:20.555Z," 6.93"
2017-12-22T21:56:16.329Z," 6.84"
2017-12-22T22:01:12.791Z," 6.81"
2017-12-22T22:06:08.259Z," 6.85"
2017-12-22T22:11:04.114Z," 6.92"
2017-12-22T22:15:59.826Z," 7.02"
2017-12-22T22:20:55.719Z," 7.07"
2017-12-22T22:25:51.306Z," 7.13"
2017-12-22T22:30:47.104Z," 7.11"
2017-12-22T22:35:44.043Z," 7.05"
2017-12-22T22:40:39.277Z," 7.13"
2017-12-22T22:45:34.913Z," 7.10"
2017-12-22T22:50:30.593Z," 7.07"
2017-12-22T22:55:27.264Z," 7.18"
2017-12-22T23:00:23.650Z," 7.24"
2017-12-22T23:05:19.940Z," 7.14"
2017-12-22T23:10:15.501Z," 7.14"
2017-12-22T23:15:11.187Z," 7.25"
2017-12-22T23:20:06.828Z," 7.29"
2017-12-22T23:25:02.594Z," 7.45"
2017-12-22T23:29:58.387Z," 7.50"
2017-12-22T23:34:54.333Z," 7.45"
2017-12-22T23:39:51.175Z," 7.50"
2017-12-22T23:44:47.664Z," 7.57"
2017-12-22T23:49:43.094Z," 7.58"
2017-12-22T23:54:39.859Z," 7.61"
2017-12-22T23:59:35.429Z," 7.72"
